Palmer, Iowa
Current Conditions -  °F | °C
As of 12:15 AM on Thursday 29 Jan 2015 (Local Time) from KFOD Reporting Station
Overcast Overcast  
Wind Chill: 26°   Ceiling: 1200
Heat Index: 34°   Visibility: 7mi
Dew Point: 28°   Wind: 9mph
Humidity: 81%   Direction: 330°NNW
Pressure: 29.87"   Gusts: 25mph
Location:  42.63°N, 94.6°W
Report Text: KFOD 290615Z AUTO 33008G22KT 290V360 7SM OVC012 01/M02 A2987 RMK AO1
Loading
Personal Weather Stations






























Interactive Weather Map New forecast layout! Learn more

10-Day Weather Forecast

Advertisements
Track Severe Weather on mobile